createdAt,value
2023-12-30T00:02:19.595Z,1.67
2023-12-30T00:04:49.093Z,0.70
2023-12-30T00:07:18.969Z,1.30
2023-12-30T00:09:48.406Z,1.10
2023-12-30T00:12:17.774Z,1.23
2023-12-30T00:14:48.317Z,1.20
2023-12-30T00:17:17.776Z,1.30
2023-12-30T00:19:48.669Z,1.20
2023-12-30T00:22:20.337Z,1.17
2023-12-30T00:24:49.633Z,1.20
2023-12-30T00:27:19.197Z,1.10
2023-12-30T00:29:51.523Z,0.97
2023-12-30T00:32:21.152Z,1.10
2023-12-30T00:34:51.055Z,0.87
2023-12-30T00:37:22.157Z,1.30
2023-12-30T00:39:55.456Z,1.00
2023-12-30T00:42:25.108Z,1.73
2023-12-30T00:44:59.367Z,0.73
2023-12-30T00:47:28.681Z,0.80
2023-12-30T00:49:58.701Z,0.83
2023-12-30T00:52:27.688Z,1.23
2023-12-30T00:54:56.842Z,0.87
2023-12-30T00:57:28.087Z,2.20
2023-12-30T01:00:01.202Z,0.60
2023-12-30T01:02:35.409Z,1.20
2023-12-30T01:05:06.847Z,1.37
2023-12-30T01:07:39.925Z,1.47
2023-12-30T01:10:10.502Z,1.10
2023-12-30T01:12:40.001Z,1.43
2023-12-30T01:15:12.812Z,1.00
2023-12-30T01:17:42.084Z,1.30
2023-12-30T01:20:13.099Z,1.03
2023-12-30T01:22:42.737Z,1.43
2023-12-30T01:25:12.567Z,1.23
2023-12-30T01:27:42.388Z,1.23
2023-12-30T01:30:13.498Z,1.07
2023-12-30T01:32:44.465Z,0.83
2023-12-30T01:35:16.128Z,1.03
2023-12-30T01:37:45.364Z,1.07
2023-12-30T01:40:16.547Z,1.40
2023-12-30T01:42:45.901Z,0.67
2023-12-30T01:45:16.840Z,0.70
2023-12-30T01:47:46.267Z,1.20
2023-12-30T01:50:15.577Z,1.10
2023-12-30T01:52:48.817Z,1.10
2023-12-30T01:55:21.955Z,0.43
2023-12-30T01:57:51.743Z,1.03
2023-12-30T02:00:24.838Z,1.33
2023-12-30T02:02:56.590Z,1.23
2023-12-30T02:05:26.907Z,1.17
2023-12-30T02:07:58.785Z,1.00
2023-12-30T02:10:28.253Z,0.57
2023-12-30T02:13:01.049Z,1.07
2023-12-30T02:15:37.390Z,1.20
2023-12-30T02:18:07.510Z,0.90
2023-12-30T02:20:38.701Z,1.30
2023-12-30T02:23:09.292Z,0.97
2023-12-30T02:25:41.093Z,1.57
2023-12-30T02:28:11.885Z,0.77
2023-12-30T02:30:42.444Z,0.90
2023-12-30T02:33:12.213Z,1.00
2023-12-30T02:35:47.709Z,0.80
2023-12-30T02:38:19.448Z,0.50
2023-12-30T02:40:48.594Z,0.77
2023-12-30T02:43:17.586Z,0.83
2023-12-30T02:45:48.630Z,0.90
2023-12-30T02:48:18.185Z,0.90
2023-12-30T02:50:47.557Z,0.77
2023-12-30T02:53:19.025Z,0.40
2023-12-30T02:55:49.726Z,0.83
2023-12-30T02:58:19.161Z,1.00
2023-12-30T03:00:50.952Z,0.77
2023-12-30T03:03:20.809Z,0.70
2023-12-30T03:05:50.277Z,1.10
2023-12-30T03:08:26.487Z,1.00
2023-12-30T03:10:56.422Z,1.00
2023-12-30T03:13:25.661Z,0.73
2023-12-30T03:15:58.244Z,0.70
2023-12-30T03:18:27.787Z,1.00
2023-12-30T03:20:58.921Z,0.93
2023-12-30T03:23:30.084Z,0.97
2023-12-30T03:25:59.605Z,0.90
2023-12-30T03:28:30.461Z,0.80
2023-12-30T03:31:00.103Z,0.90
2023-12-30T03:33:29.640Z,0.63
2023-12-30T03:35:58.779Z,0.97
2023-12-30T03:38:29.114Z,1.10
2023-12-30T03:40:58.572Z,1.00
2023-12-30T03:43:28.396Z,1.00
2023-12-30T03:45:58.923Z,0.73
2023-12-30T03:48:29.104Z,1.00
2023-12-30T03:50:57.955Z,0.97
2023-12-30T03:53:28.705Z,1.03
2023-12-30T03:56:02.302Z,1.00
2023-12-30T03:58:32.486Z,0.80
2023-12-30T04:01:03.222Z,0.90
2023-12-30T04:03:38.466Z,0.80
2023-12-30T04:06:07.793Z,0.83
2023-12-30T04:08:37.732Z,0.83
2023-12-30T04:11:08.879Z,1.23
2023-12-30T04:13:40.019Z,0.87
2023-12-30T04:16:10.598Z,1.20
2023-12-30T04:18:44.046Z,0.73
2023-12-30T04:21:13.533Z,0.87
2023-12-30T04:23:43.616Z,0.80
2023-12-30T04:26:14.740Z,0.90
2023-12-30T04:28:45.214Z,1.00
2023-12-30T04:31:14.933Z,0.90
2023-12-30T04:33:44.360Z,0.80
2023-12-30T04:36:13.723Z,0.90
2023-12-30T04:38:45.061Z,0.90
2023-12-30T04:41:23.130Z,1.07
2023-12-30T04:43:53.634Z,0.80
2023-12-30T04:46:25.765Z,0.83
2023-12-30T04:48:56.181Z,0.83
2023-12-30T04:51:29.459Z,1.10
2023-12-30T04:54:00.313Z,0.90
2023-12-30T04:56:31.774Z,0.80
2023-12-30T04:59:03.154Z,0.90
2023-12-30T05:01:36.416Z,0.80
2023-12-30T05:04:07.218Z,0.73
2023-12-30T05:06:36.531Z,1.07
2023-12-30T05:09:08.166Z,1.00
2023-12-30T05:11:39.467Z,1.17
2023-12-30T05:14:09.680Z,0.80
2023-12-30T05:16:47.392Z,0.80
2023-12-30T05:19:17.993Z,0.97
2023-12-30T05:21:52.994Z,0.70
2023-12-30T05:24:24.420Z,1.07
2023-12-30T05:27:06.249Z,0.83
2023-12-30T05:29:37.364Z,0.80
2023-12-30T05:32:06.721Z,0.30
2023-12-30T05:34:36.617Z,0.67
2023-12-30T05:37:06.030Z,0.33
2023-12-30T05:39:35.608Z,0.50
2023-12-30T05:42:07.801Z,0.43
2023-12-30T05:44:36.738Z,0.70
2023-12-30T05:47:06.515Z,0.50
2023-12-30T05:49:37.119Z,0.50
2023-12-30T05:52:07.067Z,0.50
2023-12-30T05:54:36.570Z,0.40
2023-12-30T05:57:09.857Z,0.60
2023-12-30T05:59:45.686Z,0.67
2023-12-30T06:02:15.390Z,0.47
2023-12-30T06:04:44.560Z,0.63
2023-12-30T06:07:16.655Z,0.40
2023-12-30T06:09:46.303Z,0.90
2023-12-30T06:12:19.404Z,0.53
2023-12-30T06:14:48.752Z,0.40
2023-12-30T06:17:17.747Z,0.67
2023-12-30T06:19:47.400Z,0.80
2023-12-30T06:22:21.052Z,0.70
2023-12-30T06:24:50.600Z,1.67
2023-12-30T06:27:23.816Z,0.90
2023-12-30T06:29:53.002Z,1.53
2023-12-30T06:32:22.669Z,1.70
2023-12-30T06:34:52.214Z,0.80
2023-12-30T06:37:21.551Z,1.00
2023-12-30T06:39:54.081Z,0.73
2023-12-30T06:42:24.957Z,0.70
2023-12-30T06:44:56.326Z,0.80
2023-12-30T06:47:25.278Z,0.80
2023-12-30T06:49:54.304Z,0.90
2023-12-30T06:52:26.100Z,0.70
2023-12-30T06:55:06.772Z,0.73
2023-12-30T06:57:46.939Z,0.73
2023-12-30T07:00:17.844Z,1.00
2023-12-30T07:02:49.978Z,1.00
2023-12-30T07:05:22.346Z,1.37
2023-12-30T07:07:51.384Z,0.97
2023-12-30T07:10:20.754Z,1.17
2023-12-30T07:12:51.766Z,0.90
2023-12-30T07:15:21.238Z,0.60
2023-12-30T07:17:51.017Z,0.20
2023-12-30T07:20:19.593Z,0.20
2023-12-30T07:22:48.429Z,0.20
2023-12-30T07:25:19.445Z,0.30
2023-12-30T07:27:55.525Z,0.20
2023-12-30T07:30:29.393Z,0.30
2023-12-30T07:32:58.869Z,0.10
2023-12-30T07:35:29.014Z,0.13
2023-12-30T07:37:58.294Z,0.20
2023-12-30T07:40:30.872Z,0.10
2023-12-30T07:43:02.031Z,0.10
2023-12-30T07:45:31.308Z,0.33
2023-12-30T07:48:00.445Z,0.30
2023-12-30T07:50:32.157Z,0.27
2023-12-30T07:53:01.673Z,0.30
2023-12-30T07:55:30.907Z,0.23
2023-12-30T07:58:02.841Z,0.20
2023-12-30T08:00:32.422Z,0.20
2023-12-30T08:03:02.154Z,0.10
2023-12-30T08:05:31.436Z,0.27
2023-12-30T08:08:00.539Z,0.30
2023-12-30T08:10:31.114Z,0.33
2023-12-30T08:13:02.170Z,0.33
2023-12-30T08:15:36.216Z,0.23
2023-12-30T08:18:06.363Z,0.50
2023-12-30T08:20:35.875Z,0.20
2023-12-30T08:23:06.749Z,0.30
2023-12-30T08:25:38.132Z,0.30
2023-12-30T08:28:09.284Z,0.30
2023-12-30T08:30:39.182Z,0.30
2023-12-30T08:33:11.350Z,0.30
2023-12-30T08:35:41.712Z,0.40
2023-12-30T08:38:11.169Z,0.30
2023-12-30T08:40:40.872Z,0.47
2023-12-30T08:43:12.680Z,0.30
2023-12-30T08:45:42.252Z,0.20
2023-12-30T08:48:11.522Z,0.40
2023-12-30T08:50:41.223Z,0.30
2023-12-30T08:53:13.462Z,0.20
2023-12-30T08:55:43.498Z,0.40
2023-12-30T08:58:14.135Z,0.40
2023-12-30T09:00:43.256Z,0.33
2023-12-30T09:03:12.203Z,0.30
2023-12-30T09:05:41.283Z,0.30
2023-12-30T09:08:11.542Z,0.20
2023-12-30T09:10:41.957Z,0.53
2023-12-30T09:13:12.485Z,0.30
2023-12-30T09:15:43.843Z,0.37
2023-12-30T09:18:15.742Z,0.13
2023-12-30T09:20:45.312Z,0.30
2023-12-30T09:23:14.619Z,0.20
2023-12-30T09:25:47.022Z,0.30
2023-12-30T09:28:16.509Z,0.30
2023-12-30T09:30:47.470Z,0.20
2023-12-30T09:33:17.637Z,0.40
2023-12-30T09:35:46.712Z,0.30
2023-12-30T09:38:16.572Z,0.27
2023-12-30T09:40:45.726Z,0.40
2023-12-30T09:43:17.474Z,0.30
2023-12-30T09:45:50.004Z,0.30
2023-12-30T09:48:22.060Z,0.33
2023-12-30T09:50:52.687Z,0.30
2023-12-30T09:53:23.555Z,0.40
2023-12-30T09:55:56.781Z,0.47
2023-12-30T09:58:28.467Z,0.63
2023-12-30T10:01:02.646Z,0.43
2023-12-30T10:03:37.429Z,0.43
2023-12-30T10:06:12.167Z,0.30
2023-12-30T10:08:45.412Z,0.40
2023-12-30T10:11:14.428Z,0.70
2023-12-30T10:13:43.954Z,0.30
2023-12-30T10:16:20.302Z,0.40
2023-12-30T10:18:50.771Z,0.60
2023-12-30T10:21:21.838Z,0.50
2023-12-30T10:23:53.481Z,0.53
2023-12-30T10:26:25.314Z,0.80
2023-12-30T10:28:57.603Z,0.40
2023-12-30T10:31:31.105Z,0.70
2023-12-30T10:34:01.364Z,0.50
2023-12-30T10:36:31.890Z,0.50
2023-12-30T10:39:04.917Z,0.75
2023-12-30T10:41:35.209Z,0.70
2023-12-30T10:44:04.683Z,0.80
2023-12-30T10:46:38.457Z,0.60
2023-12-30T10:49:11.916Z,0.60
2023-12-30T10:51:45.431Z,0.40
2023-12-30T10:54:21.476Z,0.43
2023-12-30T10:57:04.518Z,0.70
2023-12-30T10:59:34.291Z,0.70
2023-12-30T11:02:09.696Z,0.50
2023-12-30T11:04:40.754Z,0.40
2023-12-30T11:07:16.203Z,0.60
2023-12-30T11:09:47.208Z,0.50
2023-12-30T11:12:16.844Z,0.50
2023-12-30T11:14:46.154Z,0.60
2023-12-30T11:17:36.963Z,0.60
2023-12-30T11:20:26.261Z,0.90
2023-12-30T11:22:59.196Z,0.50
2023-12-30T11:25:45.313Z,0.87
2023-12-30T11:28:16.833Z,0.87
2023-12-30T11:30:53.450Z,0.50
2023-12-30T11:33:25.585Z,0.77
2023-12-30T11:35:58.451Z,0.73
2023-12-30T11:38:34.489Z,0.67
2023-12-30T11:41:08.258Z,0.83
2023-12-30T11:43:38.346Z,0.63
2023-12-30T11:46:09.543Z,0.60
2023-12-30T11:48:55.057Z,0.60
2023-12-30T11:51:25.692Z,0.70
2023-12-30T11:53:56.943Z,0.40
2023-12-30T11:56:26.476Z,0.60
2023-12-30T11:58:56.131Z,0.63
2023-12-30T12:01:25.487Z,0.80
2023-12-30T12:03:57.900Z,1.20
2023-12-30T12:06:27.442Z,1.03
2023-12-30T12:08:56.859Z,0.63
2023-12-30T12:11:27.346Z,0.80
2023-12-30T12:14:00.363Z,0.90
2023-12-30T12:16:30.686Z,0.70
2023-12-30T12:19:05.741Z,0.60
2023-12-30T12:21:36.442Z,0.70
2023-12-30T12:24:06.786Z,0.90
2023-12-30T12:26:39.259Z,0.80
2023-12-30T12:29:09.907Z,0.70
2023-12-30T12:31:39.617Z,1.13
2023-12-30T12:34:25.105Z,0.87
2023-12-30T12:36:56.130Z,1.47
2023-12-30T12:39:26.088Z,0.87
2023-12-30T12:41:56.790Z,1.27
2023-12-30T12:44:26.234Z,1.30
2023-12-30T12:46:55.441Z,1.47
2023-12-30T12:49:26.531Z,1.57
2023-12-30T12:51:56.136Z,0.90
2023-12-30T12:54:25.400Z,1.00
2023-12-30T12:56:54.462Z,0.70
2023-12-30T12:59:24.068Z,1.27
2023-12-30T13:01:53.882Z,0.90
2023-12-30T13:04:23.576Z,0.80
2023-12-30T13:06:55.160Z,0.90
2023-12-30T13:09:38.251Z,0.87
2023-12-30T13:12:09.103Z,1.17
2023-12-30T13:14:38.697Z,1.43
2023-12-30T13:17:18.376Z,1.33
2023-12-30T13:19:48.375Z,1.10
2023-12-30T13:22:21.302Z,1.27
2023-12-30T13:24:50.607Z,1.27
2023-12-30T13:27:31.135Z,0.90
2023-12-30T13:30:04.534Z,1.20
2023-12-30T13:32:36.753Z,0.97
2023-12-30T13:35:07.996Z,1.17
2023-12-30T13:37:40.650Z,1.20
2023-12-30T13:40:14.033Z,1.13
2023-12-30T13:42:45.832Z,1.30
2023-12-30T13:45:16.473Z,1.10
2023-12-30T13:48:10.756Z,0.70
2023-12-30T13:50:52.708Z,1.13
2023-12-30T13:53:27.560Z,1.27
2023-12-30T13:56:07.223Z,1.20
2023-12-30T13:58:36.901Z,1.80
2023-12-30T14:01:07.059Z,1.90
2023-12-30T14:03:37.160Z,2.20
2023-12-30T14:06:07.988Z,1.17
2023-12-30T14:08:43.828Z,1.47
2023-12-30T14:11:22.388Z,0.97
2023-12-30T14:13:53.054Z,1.00
2023-12-30T14:16:23.393Z,1.10
2023-12-30T14:18:52.937Z,0.70
2023-12-30T14:21:23.264Z,1.20
2023-12-30T14:23:56.950Z,0.73
2023-12-30T14:26:26.542Z,0.73
2023-12-30T14:28:55.709Z,0.73
2023-12-30T14:31:25.800Z,1.10
2023-12-30T14:33:55.922Z,1.37
2023-12-30T14:36:25.428Z,0.93
2023-12-30T14:38:55.937Z,0.90
2023-12-30T14:41:26.076Z,0.70
2023-12-30T14:43:56.449Z,0.73
2023-12-30T14:46:26.754Z,0.90
2023-12-30T14:49:00.062Z,1.23
2023-12-30T14:51:29.342Z,0.90
2023-12-30T14:54:00.118Z,0.80
2023-12-30T14:56:29.729Z,0.80
2023-12-30T14:59:01.036Z,0.77
2023-12-30T15:01:32.499Z,1.37
2023-12-30T15:04:04.257Z,1.33
2023-12-30T15:06:36.319Z,0.90
2023-12-30T15:09:11.375Z,1.20
2023-12-30T15:11:41.315Z,1.17
2023-12-30T15:14:10.378Z,0.80
2023-12-30T15:16:40.266Z,0.80
2023-12-30T15:19:10.264Z,0.77
2023-12-30T15:21:39.431Z,0.93
2023-12-30T15:24:11.033Z,1.00
2023-12-30T15:26:40.022Z,1.03
2023-12-30T15:29:09.493Z,1.13
2023-12-30T15:31:40.339Z,0.90
2023-12-30T15:34:13.874Z,1.00
2023-12-30T15:36:43.329Z,1.00
2023-12-30T15:39:17.312Z,1.57
2023-12-30T15:41:47.810Z,1.30
2023-12-30T15:44:17.563Z,1.73
2023-12-30T15:46:47.004Z,1.63
2023-12-30T15:49:16.160Z,1.60
2023-12-30T15:51:45.580Z,2.13
2023-12-30T15:54:27.982Z,3.13
2023-12-30T15:56:58.324Z,3.40
2023-12-30T15:59:30.451Z,3.83
2023-12-30T16:02:02.844Z,4.63
2023-12-30T16:04:36.252Z,5.03
2023-12-30T16:07:10.563Z,5.00
2023-12-30T16:09:50.833Z,4.93
2023-12-30T16:12:20.428Z,4.73
2023-12-30T16:14:51.154Z,7.27
2023-12-30T16:17:20.776Z,8.77
2023-12-30T16:19:50.419Z,8.17
2023-12-30T16:22:21.692Z,8.30
2023-12-30T16:24:52.962Z,7.40
2023-12-30T16:27:23.186Z,8.20
2023-12-30T16:29:53.285Z,7.70
2023-12-30T16:32:23.267Z,8.20
2023-12-30T16:34:56.241Z,6.80
2023-12-30T16:37:26.199Z,6.33
2023-12-30T16:39:56.683Z,7.47
2023-12-30T16:42:25.953Z,6.90
2023-12-30T16:44:55.297Z,6.30
2023-12-30T16:47:24.605Z,6.43
2023-12-30T16:49:54.315Z,6.47
2023-12-30T16:52:25.275Z,6.20
2023-12-30T16:54:56.339Z,8.30
2023-12-30T16:57:26.743Z,6.67
2023-12-30T16:59:55.944Z,6.60
2023-12-30T17:02:26.551Z,6.33
2023-12-30T17:04:56.426Z,7.70
2023-12-30T17:07:25.885Z,6.33
2023-12-30T17:10:00.296Z,6.90
2023-12-30T17:12:30.082Z,8.20
2023-12-30T17:14:59.408Z,8.30
2023-12-30T17:17:42.127Z,8.50
2023-12-30T17:20:20.187Z,8.97
2023-12-30T17:22:50.872Z,8.43
2023-12-30T17:25:29.251Z,7.30
2023-12-30T17:28:01.794Z,7.30
2023-12-30T17:30:36.629Z,12.10
2023-12-30T17:33:17.886Z,10.40
2023-12-30T17:35:47.257Z,7.90
2023-12-30T17:38:17.065Z,6.67
2023-12-30T17:40:48.069Z,5.93
2023-12-30T17:43:17.855Z,6.43
2023-12-30T17:45:48.389Z,6.37
2023-12-30T17:48:18.073Z,6.47
2023-12-30T17:50:47.209Z,6.67
2023-12-30T17:53:20.378Z,6.50
2023-12-30T17:55:53.994Z,5.93
2023-12-30T17:58:30.230Z,5.23
2023-12-30T18:01:02.570Z,3.27
2023-12-30T18:03:31.911Z,3.40
2023-12-30T18:06:03.606Z,3.77
2023-12-30T18:08:37.735Z,3.93
2023-12-30T18:11:09.123Z,4.77
2023-12-30T18:13:39.180Z,5.30
2023-12-30T18:16:12.317Z,5.27
2023-12-30T18:18:43.171Z,4.50
2023-12-30T18:21:14.502Z,5.20
2023-12-30T18:23:49.692Z,6.27
2023-12-30T18:26:23.555Z,5.50
2023-12-30T18:29:00.031Z,5.30
2023-12-30T18:31:29.664Z,6.33
2023-12-30T18:34:02.305Z,5.60
2023-12-30T18:36:34.072Z,4.13
2023-12-30T18:39:06.773Z,6.07
2023-12-30T18:41:45.422Z,7.17
2023-12-30T18:44:15.684Z,5.93
2023-12-30T18:46:47.720Z,6.47
2023-12-30T18:49:23.329Z,6.40
2023-12-30T18:51:53.760Z,6.90
2023-12-30T18:54:28.437Z,7.73
2023-12-30T18:57:14.906Z,5.93
2023-12-30T18:59:52.684Z,7.73
2023-12-30T19:02:22.478Z,5.53
2023-12-30T19:04:53.229Z,4.97
2023-12-30T19:07:31.524Z,5.80
2023-12-30T19:10:02.413Z,5.93
2023-12-30T19:12:35.680Z,4.67
2023-12-30T19:15:09.163Z,5.40
2023-12-30T19:17:40.952Z,4.53
2023-12-30T19:20:22.128Z,4.53
2023-12-30T19:22:52.519Z,4.97
2023-12-30T19:25:24.030Z,5.77
2023-12-30T19:27:59.508Z,5.37
2023-12-30T19:30:31.856Z,5.67
2023-12-30T19:33:02.128Z,4.97
2023-12-30T19:35:34.382Z,5.10
2023-12-30T19:38:08.432Z,5.10
2023-12-30T19:40:46.076Z,4.67
2023-12-30T19:43:21.401Z,4.77
2023-12-30T19:45:56.646Z,4.67
2023-12-30T19:48:30.611Z,6.57
2023-12-30T19:51:02.074Z,3.93
2023-12-30T19:53:33.985Z,5.43
2023-12-30T19:56:03.966Z,5.37
2023-12-30T19:58:39.100Z,4.10
2023-12-30T20:01:09.845Z,4.13
2023-12-30T20:03:48.665Z,4.53
2023-12-30T20:06:21.302Z,3.70
2023-12-30T20:09:15.163Z,3.83
2023-12-30T20:12:06.079Z,4.30
2023-12-30T20:14:40.492Z,3.43
2023-12-30T20:17:09.962Z,4.30
2023-12-30T20:19:44.062Z,5.73
2023-12-30T20:22:19.583Z,5.17
2023-12-30T20:24:57.444Z,4.57
2023-12-30T20:27:31.611Z,3.47
2023-12-30T20:30:10.985Z,4.10
2023-12-30T20:32:53.993Z,4.30
2023-12-30T20:35:32.028Z,4.77
2023-12-30T20:38:02.697Z,4.63
2023-12-30T20:40:32.249Z,3.07
2023-12-30T20:43:02.441Z,4.13
2023-12-30T20:45:36.197Z,3.77
2023-12-30T20:48:16.179Z,3.20
2023-12-30T20:50:46.352Z,3.13
2023-12-30T20:53:38.654Z,3.43
2023-12-30T20:56:11.929Z,2.77
2023-12-30T20:58:51.195Z,2.77
2023-12-30T21:01:34.749Z,3.57
2023-12-30T21:04:11.747Z,4.00
2023-12-30T21:06:43.975Z,3.50
2023-12-30T21:09:27.339Z,2.90
2023-12-30T21:12:02.692Z,3.70
2023-12-30T21:14:36.465Z,3.33
2023-12-30T21:17:32.922Z,4.27
2023-12-30T21:20:11.705Z,2.80
2023-12-30T21:22:46.178Z,4.00
2023-12-30T21:25:23.921Z,4.90
2023-12-30T21:28:02.206Z,4.20
2023-12-30T21:30:37.725Z,4.37
2023-12-30T21:33:12.346Z,3.03
2023-12-30T21:35:52.704Z,3.60
2023-12-30T21:38:26.690Z,3.40
2023-12-30T21:41:01.188Z,5.20
2023-12-30T21:43:40.096Z,4.60
2023-12-30T21:46:13.903Z,3.60
2023-12-30T21:48:56.079Z,4.63
2023-12-30T21:51:26.884Z,3.97
2023-12-30T21:54:02.505Z,3.37
2023-12-30T21:56:38.196Z,4.17
2023-12-30T21:59:12.069Z,3.70
2023-12-30T22:01:43.690Z,4.27
2023-12-30T22:04:19.608Z,4.67
2023-12-30T22:06:55.932Z,3.87
2023-12-30T22:09:27.937Z,4.67
2023-12-30T22:11:59.601Z,4.73
2023-12-30T22:14:35.907Z,5.20
2023-12-30T22:17:10.882Z,4.53
2023-12-30T22:19:48.731Z,5.33
2023-12-30T22:22:18.803Z,4.00
2023-12-30T22:24:48.490Z,4.17
2023-12-30T22:27:17.702Z,5.13
2023-12-30T22:29:47.072Z,4.77
2023-12-30T22:32:21.217Z,4.50
2023-12-30T22:35:01.375Z,4.80
2023-12-30T22:37:30.748Z,4.57
2023-12-30T22:39:59.989Z,4.23
2023-12-30T22:42:31.325Z,5.00
2023-12-30T22:45:00.631Z,4.20
2023-12-30T22:47:29.776Z,4.20
2023-12-30T22:50:09.911Z,5.23
2023-12-30T22:52:40.901Z,4.23
2023-12-30T22:55:12.551Z,4.37
2023-12-30T22:57:43.365Z,4.13
2023-12-30T23:00:17.452Z,4.80
2023-12-30T23:02:47.242Z,5.40
2023-12-30T23:05:18.554Z,4.80
2023-12-30T23:07:51.595Z,4.20
2023-12-30T23:10:21.250Z,3.97
2023-12-30T23:12:51.267Z,3.63
2023-12-30T23:15:23.684Z,3.43
2023-12-30T23:17:52.836Z,4.00
2023-12-30T23:20:23.787Z,4.80
2023-12-30T23:22:55.569Z,5.30
2023-12-30T23:25:24.593Z,4.93
2023-12-30T23:27:55.981Z,5.20
2023-12-30T23:30:27.807Z,3.90
2023-12-30T23:32:57.840Z,4.77
2023-12-30T23:35:30.999Z,5.37
2023-12-30T23:38:00.557Z,6.50
2023-12-30T23:40:29.944Z,7.87
2023-12-30T23:43:01.129Z,6.63
2023-12-30T23:45:35.550Z,6.53
2023-12-30T23:48:05.597Z,6.70
2023-12-30T23:50:36.280Z,7.83
2023-12-30T23:53:06.309Z,5.63
2023-12-30T23:55:36.594Z,7.17
2023-12-30T23:58:10.825Z,5.37
